sensor_id;sensor_type;location;lat;lon;timestamp;P1;durP1;ratioP1;P2;durP2;ratioP2
55031;SDS011;40928;51.076;7.950;2022-07-23T00:00:33;12.75;;;7.88;;
55031;SDS011;40928;51.076;7.950;2022-07-23T00:02:59;9.70;;;7.07;;
55031;SDS011;40928;51.076;7.950;2022-07-23T00:05:24;9.90;;;7.18;;
55031;SDS011;40928;51.076;7.950;2022-07-23T00:07:50;9.65;;;5.85;;
55031;SDS011;40928;51.076;7.950;2022-07-23T00:10:15;8.73;;;7.13;;
55031;SDS011;40928;51.076;7.950;2022-07-23T00:12:41;11.98;;;6.68;;
55031;SDS011;40928;51.076;7.950;2022-07-23T00:15:07;9.02;;;6.65;;
55031;SDS011;40928;51.076;7.950;2022-07-23T00:17:34;12.93;;;7.60;;
55031;SDS011;40928;51.076;7.950;2022-07-23T00:19:59;16.88;;;8.63;;
55031;SDS011;40928;51.076;7.950;2022-07-23T00:22:25;15.25;;;9.88;;
55031;SDS011;40928;51.076;7.950;2022-07-23T00:24:51;18.10;;;9.38;;
55031;SDS011;40928;51.076;7.950;2022-07-23T00:27:16;16.63;;;8.73;;
55031;SDS011;40928;51.076;7.950;2022-07-23T00:29:42;19.17;;;9.18;;
55031;SDS011;40928;51.076;7.950;2022-07-23T00:32:07;14.48;;;9.15;;
55031;SDS011;40928;51.076;7.950;2022-07-23T00:34:33;20.20;;;9.25;;
55031;SDS011;40928;51.076;7.950;2022-07-23T00:36:58;10.73;;;7.25;;
55031;SDS011;40928;51.076;7.950;2022-07-23T00:39:24;17.20;;;8.85;;
55031;SDS011;40928;51.076;7.950;2022-07-23T00:41:50;23.80;;;10.43;;
55031;SDS011;40928;51.076;7.950;2022-07-23T00:44:26;15.52;;;9.23;;
55031;SDS011;40928;51.076;7.950;2022-07-23T00:46:53;15.35;;;9.23;;
55031;SDS011;40928;51.076;7.950;2022-07-23T00:49:21;16.10;;;8.05;;
55031;SDS011;40928;51.076;7.950;2022-07-23T00:51:50;16.65;;;9.70;;
55031;SDS011;40928;51.076;7.950;2022-07-23T00:54:17;20.92;;;10.18;;
55031;SDS011;40928;51.076;7.950;2022-07-23T00:56:44;18.67;;;10.63;;
55031;SDS011;40928;51.076;7.950;2022-07-23T00:59:10;14.27;;;8.68;;
55031;SDS011;40928;51.076;7.950;2022-07-23T01:01:36;15.00;;;8.40;;
55031;SDS011;40928;51.076;7.950;2022-07-23T01:04:02;13.80;;;8.15;;
55031;SDS011;40928;51.076;7.950;2022-07-23T01:06:28;17.27;;;10.13;;
55031;SDS011;40928;51.076;7.950;2022-07-23T01:08:54;17.13;;;10.25;;
55031;SDS011;40928;51.076;7.950;2022-07-23T01:11:20;14.32;;;8.77;;
55031;SDS011;40928;51.076;7.950;2022-07-23T01:13:48;15.15;;;9.88;;
55031;SDS011;40928;51.076;7.950;2022-07-23T01:16:13;12.70;;;8.60;;
55031;SDS011;40928;51.076;7.950;2022-07-23T01:18:39;21.58;;;10.80;;
55031;SDS011;40928;51.076;7.950;2022-07-23T01:21:04;21.48;;;10.65;;
55031;SDS011;40928;51.076;7.950;2022-07-23T01:23:31;16.60;;;10.73;;
55031;SDS011;40928;51.076;7.950;2022-07-23T01:25:58;12.55;;;7.93;;
55031;SDS011;40928;51.076;7.950;2022-07-23T01:28:25;12.57;;;8.00;;
55031;SDS011;40928;51.076;7.950;2022-07-23T01:30:50;14.90;;;9.15;;
55031;SDS011;40928;51.076;7.950;2022-07-23T01:33:16;17.38;;;10.25;;
55031;SDS011;40928;51.076;7.950;2022-07-23T01:35:42;19.17;;;10.25;;
55031;SDS011;40928;51.076;7.950;2022-07-23T01:38:08;16.85;;;9.77;;
55031;SDS011;40928;51.076;7.950;2022-07-23T01:40:35;15.13;;;9.40;;
55031;SDS011;40928;51.076;7.950;2022-07-23T01:43:01;19.65;;;10.82;;
55031;SDS011;40928;51.076;7.950;2022-07-23T01:45:29;17.52;;;10.55;;
55031;SDS011;40928;51.076;7.950;2022-07-23T01:47:54;17.88;;;10.48;;
55031;SDS011;40928;51.076;7.950;2022-07-23T01:50:20;18.77;;;10.45;;
55031;SDS011;40928;51.076;7.950;2022-07-23T01:53:04;13.38;;;8.75;;
55031;SDS011;40928;51.076;7.950;2022-07-23T01:55:30;23.23;;;11.77;;
55031;SDS011;40928;51.076;7.950;2022-07-23T01:57:56;18.92;;;10.68;;
55031;SDS011;40928;51.076;7.950;2022-07-23T02:00:26;18.23;;;10.40;;
55031;SDS011;40928;51.076;7.950;2022-07-23T02:02:52;19.17;;;11.23;;
55031;SDS011;40928;51.076;7.950;2022-07-23T02:05:17;21.27;;;11.52;;
55031;SDS011;40928;51.076;7.950;2022-07-23T02:07:44;19.77;;;10.05;;
55031;SDS011;40928;51.076;7.950;2022-07-23T02:10:10;23.95;;;12.52;;
55031;SDS011;40928;51.076;7.950;2022-07-23T02:12:36;20.02;;;10.15;;
55031;SDS011;40928;51.076;7.950;2022-07-23T02:15:02;19.73;;;11.05;;
55031;SDS011;40928;51.076;7.950;2022-07-23T02:17:28;16.92;;;10.05;;
55031;SDS011;40928;51.076;7.950;2022-07-23T02:19:53;24.48;;;11.95;;
55031;SDS011;40928;51.076;7.950;2022-07-23T02:22:20;16.92;;;10.00;;
55031;SDS011;40928;51.076;7.950;2022-07-23T02:24:48;19.45;;;10.95;;
55031;SDS011;40928;51.076;7.950;2022-07-23T02:27:14;22.98;;;10.43;;
55031;SDS011;40928;51.076;7.950;2022-07-23T02:29:40;17.90;;;10.15;;
55031;SDS011;40928;51.076;7.950;2022-07-23T02:32:05;14.70;;;9.93;;
55031;SDS011;40928;51.076;7.950;2022-07-23T02:34:31;13.35;;;9.35;;
55031;SDS011;40928;51.076;7.950;2022-07-23T02:36:56;13.85;;;8.65;;
55031;SDS011;40928;51.076;7.950;2022-07-23T02:39:23;16.83;;;9.43;;
55031;SDS011;40928;51.076;7.950;2022-07-23T02:41:49;16.67;;;10.23;;
55031;SDS011;40928;51.076;7.950;2022-07-23T02:44:14;13.15;;;8.23;;
55031;SDS011;40928;51.076;7.950;2022-07-23T02:46:43;13.50;;;8.20;;
55031;SDS011;40928;51.076;7.950;2022-07-23T02:49:09;16.35;;;9.52;;
55031;SDS011;40928;51.076;7.950;2022-07-23T02:51:34;17.95;;;9.52;;
55031;SDS011;40928;51.076;7.950;2022-07-23T02:54:03;18.90;;;9.68;;
55031;SDS011;40928;51.076;7.950;2022-07-23T02:56:29;15.95;;;8.77;;
55031;SDS011;40928;51.076;7.950;2022-07-23T02:58:56;17.45;;;9.48;;
55031;SDS011;40928;51.076;7.950;2022-07-23T03:01:21;14.30;;;8.82;;
55031;SDS011;40928;51.076;7.950;2022-07-23T03:03:47;21.58;;;10.90;;
55031;SDS011;40928;51.076;7.950;2022-07-23T03:06:12;14.77;;;8.93;;
55031;SDS011;40928;51.076;7.950;2022-07-23T03:08:39;23.33;;;12.55;;
55031;SDS011;40928;51.076;7.950;2022-07-23T03:11:04;16.63;;;10.00;;
55031;SDS011;40928;51.076;7.950;2022-07-23T03:13:37;16.33;;;9.93;;
55031;SDS011;40928;51.076;7.950;2022-07-23T03:16:03;18.80;;;10.20;;
55031;SDS011;40928;51.076;7.950;2022-07-23T03:18:29;17.88;;;10.85;;
55031;SDS011;40928;51.076;7.950;2022-07-23T03:20:55;22.75;;;11.95;;
55031;SDS011;40928;51.076;7.950;2022-07-23T03:23:20;22.50;;;10.77;;
55031;SDS011;40928;51.076;7.950;2022-07-23T03:25:47;18.23;;;11.20;;
55031;SDS011;40928;51.076;7.950;2022-07-23T03:28:15;23.27;;;13.25;;
55031;SDS011;40928;51.076;7.950;2022-07-23T03:30:47;23.55;;;12.30;;
55031;SDS011;40928;51.076;7.950;2022-07-23T03:33:14;25.63;;;13.23;;
55031;SDS011;40928;51.076;7.950;2022-07-23T03:35:42;15.05;;;10.23;;
55031;SDS011;40928;51.076;7.950;2022-07-23T03:38:16;18.52;;;9.73;;
55031;SDS011;40928;51.076;7.950;2022-07-23T03:40:42;20.55;;;10.43;;
55031;SDS011;40928;51.076;7.950;2022-07-23T03:43:07;20.33;;;10.20;;
55031;SDS011;40928;51.076;7.950;2022-07-23T03:45:33;16.15;;;9.73;;
55031;SDS011;40928;51.076;7.950;2022-07-23T03:47:59;18.83;;;9.93;;
55031;SDS011;40928;51.076;7.950;2022-07-23T03:50:25;22.63;;;10.93;;
55031;SDS011;40928;51.076;7.950;2022-07-23T03:52:51;21.60;;;11.45;;
55031;SDS011;40928;51.076;7.950;2022-07-23T03:55:16;20.05;;;10.52;;
55031;SDS011;40928;51.076;7.950;2022-07-23T03:57:42;17.63;;;9.88;;
55031;SDS011;40928;51.076;7.950;2022-07-23T04:00:09;17.50;;;9.50;;
55031;SDS011;40928;51.076;7.950;2022-07-23T04:02:43;14.02;;;8.88;;
55031;SDS011;40928;51.076;7.950;2022-07-23T04:05:10;19.30;;;9.38;;
55031;SDS011;40928;51.076;7.950;2022-07-23T04:07:37;17.05;;;8.55;;
55031;SDS011;40928;51.076;7.950;2022-07-23T04:10:02;14.05;;;7.97;;
55031;SDS011;40928;51.076;7.950;2022-07-23T04:12:28;15.65;;;8.70;;
55031;SDS011;40928;51.076;7.950;2022-07-23T04:14:55;20.88;;;11.35;;
55031;SDS011;40928;51.076;7.950;2022-07-23T04:17:20;16.70;;;10.65;;
55031;SDS011;40928;51.076;7.950;2022-07-23T04:19:46;17.67;;;9.75;;
55031;SDS011;40928;51.076;7.950;2022-07-23T04:22:15;15.98;;;8.90;;
55031;SDS011;40928;51.076;7.950;2022-07-23T04:24:41;19.02;;;10.55;;
55031;SDS011;40928;51.076;7.950;2022-07-23T04:27:07;18.15;;;9.55;;
55031;SDS011;40928;51.076;7.950;2022-07-23T04:29:33;17.70;;;10.57;;
55031;SDS011;40928;51.076;7.950;2022-07-23T04:31:59;18.95;;;9.27;;
55031;SDS011;40928;51.076;7.950;2022-07-23T04:34:24;14.38;;;9.43;;
55031;SDS011;40928;51.076;7.950;2022-07-23T04:36:52;15.30;;;9.77;;
55031;SDS011;40928;51.076;7.950;2022-07-23T04:39:19;17.98;;;10.23;;
55031;SDS011;40928;51.076;7.950;2022-07-23T04:41:45;16.65;;;8.93;;
55031;SDS011;40928;51.076;7.950;2022-07-23T04:44:11;15.73;;;8.85;;
55031;SDS011;40928;51.076;7.950;2022-07-23T04:46:37;18.05;;;9.73;;
55031;SDS011;40928;51.076;7.950;2022-07-23T04:49:04;18.90;;;11.02;;
55031;SDS011;40928;51.076;7.950;2022-07-23T04:51:31;19.83;;;10.38;;
55031;SDS011;40928;51.076;7.950;2022-07-23T04:53:56;18.23;;;10.68;;
55031;SDS011;40928;51.076;7.950;2022-07-23T04:56:22;16.27;;;10.73;;
55031;SDS011;40928;51.076;7.950;2022-07-23T04:58:47;22.17;;;11.77;;
55031;SDS011;40928;51.076;7.950;2022-07-23T05:01:13;20.65;;;11.38;;
55031;SDS011;40928;51.076;7.950;2022-07-23T05:03:39;21.67;;;11.75;;
55031;SDS011;40928;51.076;7.950;2022-07-23T05:06:04;13.13;;;8.18;;
55031;SDS011;40928;51.076;7.950;2022-07-23T05:08:30;20.17;;;11.93;;
55031;SDS011;40928;51.076;7.950;2022-07-23T05:10:57;17.77;;;10.27;;
55031;SDS011;40928;51.076;7.950;2022-07-23T05:13:23;21.48;;;11.75;;
55031;SDS011;40928;51.076;7.950;2022-07-23T05:15:52;25.23;;;12.93;;
55031;SDS011;40928;51.076;7.950;2022-07-23T05:18:18;19.92;;;12.20;;
55031;SDS011;40928;51.076;7.950;2022-07-23T05:20:44;22.30;;;12.35;;
55031;SDS011;40928;51.076;7.950;2022-07-23T05:23:13;26.55;;;13.95;;
55031;SDS011;40928;51.076;7.950;2022-07-23T05:25:40;22.35;;;12.15;;
55031;SDS011;40928;51.076;7.950;2022-07-23T05:28:06;27.65;;;15.05;;
55031;SDS011;40928;51.076;7.950;2022-07-23T05:30:32;31.17;;;16.42;;
55031;SDS011;40928;51.076;7.950;2022-07-23T05:33:00;26.45;;;15.15;;
55031;SDS011;40928;51.076;7.950;2022-07-23T05:35:26;23.70;;;13.20;;
55031;SDS011;40928;51.076;7.950;2022-07-23T05:38:18;32.88;;;15.40;;
55031;SDS011;40928;51.076;7.950;2022-07-23T05:40:43;25.45;;;13.90;;
55031;SDS011;40928;51.076;7.950;2022-07-23T05:43:09;24.23;;;13.23;;
55031;SDS011;40928;51.076;7.950;2022-07-23T05:45:34;32.90;;;19.25;;
55031;SDS011;40928;51.076;7.950;2022-07-23T05:48:00;29.60;;;16.80;;
55031;SDS011;40928;51.076;7.950;2022-07-23T05:50:32;24.75;;;14.52;;
55031;SDS011;40928;51.076;7.950;2022-07-23T05:53:04;25.00;;;15.55;;
55031;SDS011;40928;51.076;7.950;2022-07-23T05:55:51;17.95;;;10.50;;
55031;SDS011;40928;51.076;7.950;2022-07-23T05:58:16;18.88;;;11.23;;
55031;SDS011;40928;51.076;7.950;2022-07-23T06:00:42;22.05;;;12.25;;
55031;SDS011;40928;51.076;7.950;2022-07-23T06:03:07;19.70;;;11.00;;
55031;SDS011;40928;51.076;7.950;2022-07-23T06:05:33;25.75;;;14.15;;
55031;SDS011;40928;51.076;7.950;2022-07-23T06:07:59;18.85;;;10.85;;
55031;SDS011;40928;51.076;7.950;2022-07-23T06:10:25;25.60;;;13.45;;
55031;SDS011;40928;51.076;7.950;2022-07-23T06:12:51;14.63;;;9.85;;
55031;SDS011;40928;51.076;7.950;2022-07-23T06:15:17;24.17;;;12.35;;
55031;SDS011;40928;51.076;7.950;2022-07-23T06:17:43;30.55;;;16.80;;
55031;SDS011;40928;51.076;7.950;2022-07-23T06:20:09;17.52;;;11.43;;
55031;SDS011;40928;51.076;7.950;2022-07-23T06:22:38;18.80;;;11.75;;
55031;SDS011;40928;51.076;7.950;2022-07-23T06:25:03;16.90;;;10.50;;
55031;SDS011;40928;51.076;7.950;2022-07-23T06:27:30;17.88;;;10.00;;
55031;SDS011;40928;51.076;7.950;2022-07-23T06:29:56;16.65;;;9.10;;
55031;SDS011;40928;51.076;7.950;2022-07-23T06:32:21;14.57;;;8.00;;
55031;SDS011;40928;51.076;7.950;2022-07-23T06:34:47;11.07;;;6.75;;
55031;SDS011;40928;51.076;7.950;2022-07-23T06:37:12;11.05;;;5.63;;
55031;SDS011;40928;51.076;7.950;2022-07-23T06:39:38;10.15;;;5.93;;
55031;SDS011;40928;51.076;7.950;2022-07-23T06:42:03;8.18;;;4.60;;
55031;SDS011;40928;51.076;7.950;2022-07-23T06:44:42;10.73;;;5.10;;
55031;SDS011;40928;51.076;7.950;2022-07-23T06:47:08;7.78;;;4.57;;
55031;SDS011;40928;51.076;7.950;2022-07-23T06:49:34;6.57;;;3.80;;
55031;SDS011;40928;51.076;7.950;2022-07-23T06:52:00;6.53;;;4.05;;
55031;SDS011;40928;51.076;7.950;2022-07-23T06:54:25;7.10;;;4.22;;
55031;SDS011;40928;51.076;7.950;2022-07-23T06:56:51;5.88;;;4.30;;
55031;SDS011;40928;51.076;7.950;2022-07-23T06:59:16;6.90;;;4.70;;
55031;SDS011;40928;51.076;7.950;2022-07-23T07:01:42;7.75;;;4.97;;
55031;SDS011;40928;51.076;7.950;2022-07-23T07:04:07;9.95;;;4.32;;
55031;SDS011;40928;51.076;7.950;2022-07-23T07:06:33;5.78;;;3.47;;
55031;SDS011;40928;51.076;7.950;2022-07-23T07:08:59;11.00;;;5.82;;
55031;SDS011;40928;51.076;7.950;2022-07-23T07:11:24;11.32;;;5.32;;
55031;SDS011;40928;51.076;7.950;2022-07-23T07:13:53;10.68;;;5.35;;
55031;SDS011;40928;51.076;7.950;2022-07-23T07:16:18;8.52;;;5.20;;
55031;SDS011;40928;51.076;7.950;2022-07-23T07:18:44;7.88;;;4.60;;
55031;SDS011;40928;51.076;7.950;2022-07-23T07:21:10;10.02;;;5.03;;
55031;SDS011;40928;51.076;7.950;2022-07-23T07:23:35;6.00;;;4.55;;
55031;SDS011;40928;51.076;7.950;2022-07-23T07:26:01;9.05;;;5.00;;
55031;SDS011;40928;51.076;7.950;2022-07-23T07:28:26;10.27;;;5.28;;
55031;SDS011;40928;51.076;7.950;2022-07-23T07:30:52;7.95;;;4.20;;
55031;SDS011;40928;51.076;7.950;2022-07-23T07:33:17;8.00;;;4.90;;
55031;SDS011;40928;51.076;7.950;2022-07-23T07:35:43;11.27;;;5.38;;
55031;SDS011;40928;51.076;7.950;2022-07-23T07:38:09;8.10;;;5.20;;
55031;SDS011;40928;51.076;7.950;2022-07-23T07:40:34;7.00;;;4.18;;
55031;SDS011;40928;51.076;7.950;2022-07-23T07:43:00;7.03;;;4.45;;
55031;SDS011;40928;51.076;7.950;2022-07-23T07:45:26;8.65;;;5.15;;
55031;SDS011;40928;51.076;7.950;2022-07-23T07:47:52;5.78;;;3.55;;
55031;SDS011;40928;51.076;7.950;2022-07-23T07:50:20;8.32;;;4.68;;
55031;SDS011;40928;51.076;7.950;2022-07-23T07:52:46;8.13;;;3.95;;
55031;SDS011;40928;51.076;7.950;2022-07-23T07:55:12;6.88;;;3.95;;
55031;SDS011;40928;51.076;7.950;2022-07-23T07:57:38;6.85;;;4.47;;
55031;SDS011;40928;51.076;7.950;2022-07-23T08:00:05;6.82;;;4.18;;
55031;SDS011;40928;51.076;7.950;2022-07-23T08:02:43;6.75;;;3.95;;
55031;SDS011;40928;51.076;7.950;2022-07-23T08:05:10;8.57;;;4.60;;
55031;SDS011;40928;51.076;7.950;2022-07-23T08:07:36;8.35;;;4.07;;
55031;SDS011;40928;51.076;7.950;2022-07-23T08:10:02;9.98;;;5.00;;
55031;SDS011;40928;51.076;7.950;2022-07-23T08:12:36;5.82;;;3.65;;
55031;SDS011;40928;51.076;7.950;2022-07-23T08:15:05;5.65;;;3.97;;
55031;SDS011;40928;51.076;7.950;2022-07-23T08:17:31;6.18;;;4.57;;
55031;SDS011;40928;51.076;7.950;2022-07-23T08:19:57;8.27;;;4.05;;
55031;SDS011;40928;51.076;7.950;2022-07-23T08:22:22;6.38;;;4.05;;
55031;SDS011;40928;51.076;7.950;2022-07-23T08:24:48;7.57;;;4.07;;
55031;SDS011;40928;51.076;7.950;2022-07-23T08:27:13;8.60;;;3.63;;
55031;SDS011;40928;51.076;7.950;2022-07-23T08:29:39;6.07;;;3.47;;
55031;SDS011;40928;51.076;7.950;2022-07-23T08:32:05;5.50;;;3.47;;
55031;SDS011;40928;51.076;7.950;2022-07-23T08:34:30;5.63;;;3.60;;
55031;SDS011;40928;51.076;7.950;2022-07-23T08:36:55;6.60;;;3.95;;
55031;SDS011;40928;51.076;7.950;2022-07-23T08:39:21;7.30;;;3.53;;
55031;SDS011;40928;51.076;7.950;2022-07-23T08:41:47;4.72;;;3.25;;
55031;SDS011;40928;51.076;7.950;2022-07-23T08:44:14;8.20;;;4.28;;
55031;SDS011;40928;51.076;7.950;2022-07-23T08:46:41;5.68;;;3.28;;
55031;SDS011;40928;51.076;7.950;2022-07-23T08:49:08;5.35;;;3.90;;
55031;SDS011;40928;51.076;7.950;2022-07-23T08:51:35;4.93;;;3.40;;
55031;SDS011;40928;51.076;7.950;2022-07-23T08:54:00;7.93;;;4.78;;
55031;SDS011;40928;51.076;7.950;2022-07-23T08:56:26;6.57;;;4.05;;
55031;SDS011;40928;51.076;7.950;2022-07-23T08:58:53;10.02;;;3.72;;
55031;SDS011;40928;51.076;7.950;2022-07-23T09:01:19;6.95;;;4.22;;
55031;SDS011;40928;51.076;7.950;2022-07-23T09:03:45;8.43;;;4.07;;
55031;SDS011;40928;51.076;7.950;2022-07-23T09:06:10;7.40;;;3.10;;
55031;SDS011;40928;51.076;7.950;2022-07-23T09:08:40;5.82;;;3.20;;
55031;SDS011;40928;51.076;7.950;2022-07-23T09:11:08;7.72;;;2.70;;
55031;SDS011;40928;51.076;7.950;2022-07-23T09:13:39;6.50;;;2.90;;
55031;SDS011;40928;51.076;7.950;2022-07-23T09:16:23;7.00;;;3.17;;
55031;SDS011;40928;51.076;7.950;2022-07-23T09:18:58;4.18;;;2.40;;
55031;SDS011;40928;51.076;7.950;2022-07-23T09:21:29;3.65;;;2.10;;
55031;SDS011;40928;51.076;7.950;2022-07-23T09:29:16;4.85;;;2.13;;
55031;SDS011;40928;51.076;7.950;2022-07-23T09:31:50;4.78;;;2.80;;
55031;SDS011;40928;51.076;7.950;2022-07-23T09:36:46;4.85;;;2.60;;
55031;SDS011;40928;51.076;7.950;2022-07-23T09:39:12;5.65;;;3.03;;
55031;SDS011;40928;51.076;7.950;2022-07-23T09:41:44;3.50;;;2.10;;
55031;SDS011;40928;51.076;7.950;2022-07-23T09:44:19;4.43;;;2.88;;
55031;SDS011;40928;51.076;7.950;2022-07-23T09:49:13;2.55;;;1.65;;
55031;SDS011;40928;51.076;7.950;2022-07-23T09:51:53;5.60;;;2.53;;
55031;SDS011;40928;51.076;7.950;2022-07-23T09:54:24;6.07;;;2.35;;
55031;SDS011;40928;51.076;7.950;2022-07-23T09:56:54;4.07;;;2.08;;
55031;SDS011;40928;51.076;7.950;2022-07-23T09:59:22;3.25;;;2.20;;
55031;SDS011;40928;51.076;7.950;2022-07-23T10:01:50;3.90;;;2.10;;
55031;SDS011;40928;51.076;7.950;2022-07-23T10:04:18;2.92;;;1.80;;
55031;SDS011;40928;51.076;7.950;2022-07-23T10:07:04;6.40;;;2.40;;
55031;SDS011;40928;51.076;7.950;2022-07-23T10:09:51;3.60;;;2.10;;
55031;SDS011;40928;51.076;7.950;2022-07-23T10:12:54;7.68;;;1.77;;
55031;SDS011;40928;51.076;7.950;2022-07-23T10:15:22;3.35;;;2.15;;
55031;SDS011;40928;51.076;7.950;2022-07-23T10:17:50;3.33;;;1.80;;
55031;SDS011;40928;51.076;7.950;2022-07-23T10:20:15;4.03;;;1.90;;
55031;SDS011;40928;51.076;7.950;2022-07-23T10:25:59;6.07;;;2.00;;
55031;SDS011;40928;51.076;7.950;2022-07-23T10:33:45;3.83;;;1.95;;
55031;SDS011;40928;51.076;7.950;2022-07-23T10:36:23;3.70;;;2.53;;
55031;SDS011;40928;51.076;7.950;2022-07-23T10:39:08;4.03;;;1.92;;
55031;SDS011;40928;51.076;7.950;2022-07-23T10:41:40;4.47;;;1.77;;
55031;SDS011;40928;51.076;7.950;2022-07-23T10:46:33;2.90;;;1.70;;
55031;SDS011;40928;51.076;7.950;2022-07-23T10:49:22;2.40;;;1.80;;
55031;SDS011;40928;51.076;7.950;2022-07-23T10:54:40;4.95;;;1.95;;
55031;SDS011;40928;51.076;7.950;2022-07-23T10:57:07;3.33;;;2.03;;
55031;SDS011;40928;51.076;7.950;2022-07-23T11:02:30;5.75;;;1.95;;
55031;SDS011;40928;51.076;7.950;2022-07-23T11:05:07;3.03;;;1.70;;
55031;SDS011;40928;51.076;7.950;2022-07-23T11:08:10;3.40;;;1.90;;
55031;SDS011;40928;51.076;7.950;2022-07-23T11:10:36;3.50;;;1.90;;
55031;SDS011;40928;51.076;7.950;2022-07-23T11:24:08;4.47;;;1.40;;
55031;SDS011;40928;51.076;7.950;2022-07-23T11:37:00;2.25;;;1.60;;
55031;SDS011;40928;51.076;7.950;2022-07-23T11:39:28;5.53;;;1.80;;
55031;SDS011;40928;51.076;7.950;2022-07-23T11:41:56;2.33;;;1.73;;
55031;SDS011;40928;51.076;7.950;2022-07-23T11:44:29;1.42;;;1.30;;
55031;SDS011;40928;51.076;7.950;2022-07-23T11:46:56;3.85;;;1.70;;
55031;SDS011;40928;51.076;7.950;2022-07-23T11:49:26;3.25;;;1.55;;
55031;SDS011;40928;51.076;7.950;2022-07-23T11:52:14;2.60;;;1.30;;
55031;SDS011;40928;51.076;7.950;2022-07-23T11:54:47;3.20;;;1.60;;
55031;SDS011;40928;51.076;7.950;2022-07-23T11:57:15;3.60;;;2.00;;
55031;SDS011;40928;51.076;7.950;2022-07-23T11:59:42;3.03;;;1.80;;
55031;SDS011;40928;51.076;7.950;2022-07-23T12:02:11;3.72;;;1.67;;
55031;SDS011;40928;51.076;7.950;2022-07-23T12:04:47;2.45;;;1.83;;
55031;SDS011;40928;51.076;7.950;2022-07-23T12:10:03;4.97;;;1.70;;
55031;SDS011;40928;51.076;7.950;2022-07-23T12:15:21;2.90;;;2.28;;
55031;SDS011;40928;51.076;7.950;2022-07-23T12:17:49;2.42;;;2.00;;
55031;SDS011;40928;51.076;7.950;2022-07-23T12:20:17;2.78;;;1.92;;
55031;SDS011;40928;51.076;7.950;2022-07-23T12:22:47;3.35;;;2.13;;
55031;SDS011;40928;51.076;7.950;2022-07-23T12:25:18;3.13;;;2.22;;
55031;SDS011;40928;51.076;7.950;2022-07-23T12:27:58;4.63;;;2.17;;
55031;SDS011;40928;51.076;7.950;2022-07-23T12:30:35;3.75;;;2.53;;
55031;SDS011;40928;51.076;7.950;2022-07-23T12:33:03;5.25;;;2.25;;
55031;SDS011;40928;51.076;7.950;2022-07-23T12:35:32;5.10;;;2.50;;
55031;SDS011;40928;51.076;7.950;2022-07-23T12:38:00;4.13;;;2.60;;
55031;SDS011;40928;51.076;7.950;2022-07-23T12:40:28;5.90;;;2.45;;
55031;SDS011;40928;51.076;7.950;2022-07-23T12:42:55;2.70;;;2.25;;
55031;SDS011;40928;51.076;7.950;2022-07-23T12:45:24;10.30;;;2.70;;
55031;SDS011;40928;51.076;7.950;2022-07-23T12:47:55;3.78;;;2.97;;
55031;SDS011;40928;51.076;7.950;2022-07-23T12:50:31;5.22;;;2.65;;
55031;SDS011;40928;51.076;7.950;2022-07-23T12:53:03;4.30;;;3.05;;
55031;SDS011;40928;51.076;7.950;2022-07-23T12:55:36;6.15;;;3.10;;
55031;SDS011;40928;51.076;7.950;2022-07-23T12:58:07;6.70;;;3.08;;
55031;SDS011;40928;51.076;7.950;2022-07-23T13:00:52;3.38;;;3.08;;
55031;SDS011;40928;51.076;7.950;2022-07-23T13:03:27;4.18;;;2.88;;
55031;SDS011;40928;51.076;7.950;2022-07-23T13:05:53;6.03;;;3.25;;
55031;SDS011;40928;51.076;7.950;2022-07-23T13:08:19;6.07;;;3.30;;
55031;SDS011;40928;51.076;7.950;2022-07-23T13:10:44;7.47;;;3.30;;
55031;SDS011;40928;51.076;7.950;2022-07-23T13:13:13;4.43;;;2.88;;
55031;SDS011;40928;51.076;7.950;2022-07-23T13:15:42;4.40;;;3.13;;
55031;SDS011;40928;51.076;7.950;2022-07-23T13:18:08;4.88;;;3.30;;
55031;SDS011;40928;51.076;7.950;2022-07-23T13:20:34;4.15;;;3.40;;
55031;SDS011;40928;51.076;7.950;2022-07-23T13:23:00;6.35;;;4.15;;
55031;SDS011;40928;51.076;7.950;2022-07-23T13:25:26;7.78;;;4.00;;
55031;SDS011;40928;51.076;7.950;2022-07-23T13:27:51;6.13;;;3.45;;
55031;SDS011;40928;51.076;7.950;2022-07-23T13:30:17;4.32;;;2.85;;
55031;SDS011;40928;51.076;7.950;2022-07-23T13:32:43;4.03;;;3.30;;
55031;SDS011;40928;51.076;7.950;2022-07-23T13:35:08;5.18;;;3.80;;
55031;SDS011;40928;51.076;7.950;2022-07-23T13:37:34;7.13;;;3.60;;
55031;SDS011;40928;51.076;7.950;2022-07-23T13:40:00;4.55;;;3.20;;
55031;SDS011;40928;51.076;7.950;2022-07-23T13:42:26;4.30;;;3.53;;
55031;SDS011;40928;51.076;7.950;2022-07-23T13:44:51;6.45;;;3.65;;
55031;SDS011;40928;51.076;7.950;2022-07-23T13:47:17;6.20;;;3.42;;
55031;SDS011;40928;51.076;7.950;2022-07-23T13:49:42;4.28;;;3.22;;
55031;SDS011;40928;51.076;7.950;2022-07-23T13:52:07;5.35;;;3.08;;
55031;SDS011;40928;51.076;7.950;2022-07-23T13:54:33;8.48;;;3.45;;
55031;SDS011;40928;51.076;7.950;2022-07-23T13:56:59;5.32;;;3.10;;
55031;SDS011;40928;51.076;7.950;2022-07-23T13:59:25;7.30;;;3.65;;
55031;SDS011;40928;51.076;7.950;2022-07-23T14:01:50;4.47;;;3.17;;
55031;SDS011;40928;51.076;7.950;2022-07-23T14:04:16;6.40;;;3.38;;
55031;SDS011;40928;51.076;7.950;2022-07-23T14:06:41;4.00;;;3.08;;
55031;SDS011;40928;51.076;7.950;2022-07-23T14:09:07;4.97;;;2.97;;
55031;SDS011;40928;51.076;7.950;2022-07-23T14:11:32;3.05;;;2.75;;
55031;SDS011;40928;51.076;7.950;2022-07-23T14:13:58;5.13;;;3.20;;
55031;SDS011;40928;51.076;7.950;2022-07-23T14:16:25;5.82;;;3.10;;
55031;SDS011;40928;51.076;7.950;2022-07-23T14:18:51;7.38;;;3.60;;
55031;SDS011;40928;51.076;7.950;2022-07-23T14:21:17;5.03;;;3.30;;
55031;SDS011;40928;51.076;7.950;2022-07-23T14:23:42;5.75;;;3.28;;
55031;SDS011;40928;51.076;7.950;2022-07-23T14:26:08;5.82;;;3.65;;
55031;SDS011;40928;51.076;7.950;2022-07-23T14:28:33;5.25;;;3.15;;
55031;SDS011;40928;51.076;7.950;2022-07-23T14:30:59;6.95;;;2.88;;
55031;SDS011;40928;51.076;7.950;2022-07-23T14:33:24;6.82;;;3.30;;
55031;SDS011;40928;51.076;7.950;2022-07-23T14:35:50;3.85;;;3.15;;
55031;SDS011;40928;51.076;7.950;2022-07-23T14:38:15;4.20;;;3.22;;
55031;SDS011;40928;51.076;7.950;2022-07-23T14:40:41;4.57;;;2.97;;
55031;SDS011;40928;51.076;7.950;2022-07-23T14:43:07;6.47;;;3.50;;
55031;SDS011;40928;51.076;7.950;2022-07-23T14:45:33;3.38;;;3.08;;
55031;SDS011;40928;51.076;7.950;2022-07-23T14:47:59;3.97;;;2.80;;
55031;SDS011;40928;51.076;7.950;2022-07-23T14:50:24;4.57;;;3.58;;
55031;SDS011;40928;51.076;7.950;2022-07-23T14:52:50;5.20;;;3.50;;
55031;SDS011;40928;51.076;7.950;2022-07-23T14:55:15;5.10;;;3.65;;
55031;SDS011;40928;51.076;7.950;2022-07-23T14:57:43;6.85;;;3.72;;
55031;SDS011;40928;51.076;7.950;2022-07-23T15:00:09;4.95;;;3.70;;
55031;SDS011;40928;51.076;7.950;2022-07-23T15:02:35;7.90;;;3.70;;
55031;SDS011;40928;51.076;7.950;2022-07-23T15:05:00;4.50;;;3.42;;
55031;SDS011;40928;51.076;7.950;2022-07-23T15:07:28;7.13;;;3.80;;
55031;SDS011;40928;51.076;7.950;2022-07-23T15:09:55;5.07;;;3.25;;
55031;SDS011;40928;51.076;7.950;2022-07-23T15:12:23;3.60;;;3.00;;
55031;SDS011;40928;51.076;7.950;2022-07-23T15:14:49;5.03;;;3.50;;
55031;SDS011;40928;51.076;7.950;2022-07-23T15:17:14;5.60;;;2.90;;
55031;SDS011;40928;51.076;7.950;2022-07-23T15:19:40;4.65;;;3.33;;
55031;SDS011;40928;51.076;7.950;2022-07-23T15:22:06;5.72;;;3.80;;
55031;SDS011;40928;51.076;7.950;2022-07-23T15:24:32;4.90;;;3.72;;
55031;SDS011;40928;51.076;7.950;2022-07-23T15:26:57;4.80;;;3.28;;
55031;SDS011;40928;51.076;7.950;2022-07-23T15:29:23;5.70;;;3.33;;
55031;SDS011;40928;51.076;7.950;2022-07-23T15:31:49;5.13;;;3.60;;
55031;SDS011;40928;51.076;7.950;2022-07-23T15:34:15;4.53;;;3.25;;